Time;durP1;ratioP1;P1;durP2;ratioP2;P2;SDS_P1;SDS_P2;PMS_P1;PMS_P2;Temp;Humidity;BMP_temperature;BMP_pressure;BME280_temperature;BME280_humidity;BME280_pressure;Samples;Min_cycle;Max_cycle;Signal;HPM_P1;HPM_P2
2023/06/06 00:01:17;;;;;;;8.90;4.60;;;;;;;;;;5041298;28;20108;-76
2023/06/06 00:03:44;;;;;;;8.45;5.00;;;;;;;;;;5039788;28;20029;-76
2023/06/06 00:06:11;;;;;;;10.93;4.80;;;;;;;;;;5042817;28;20021;-76
2023/06/06 00:08:36;;;;;;;9.38;4.13;;;;;;;;;;5041058;28;20115;-74
2023/06/06 00:11:02;;;;;;;10.98;4.88;;;;;;;;;;5042500;28;20092;-75
2023/06/06 00:13:31;;;;;;;10.88;5.60;;;;;;;;;;5043313;28;20045;-74
2023/06/06 00:15:58;;;;;;;8.38;4.63;;;;;;;;;;5043352;28;20471;-74
2023/06/06 00:18:27;;;;;;;13.60;4.30;;;;;;;;;;5043824;28;20394;-74
2023/06/06 00:20:53;;;;;;;9.52;4.15;;;;;;;;;;5042330;28;20115;-74
2023/06/06 00:23:20;;;;;;;12.27;5.25;;;;;;;;;;5044460;28;20159;-74
2023/06/06 00:25:47;;;;;;;8.45;4.45;;;;;;;;;;5047308;28;20387;-74
2023/06/06 00:28:13;;;;;;;8.95;4.85;;;;;;;;;;5048177;28;20036;-75
2023/06/06 00:30:39;;;;;;;11.32;4.63;;;;;;;;;;5044802;28;20029;-73
2023/06/06 00:33:05;;;;;;;10.15;5.93;;;;;;;;;;5044115;28;20118;-75
2023/06/06 00:35:31;;;;;;;10.73;4.82;;;;;;;;;;5043609;28;20615;-74
2023/06/06 00:37:57;;;;;;;6.90;4.60;;;;;;;;;;5044064;28;20029;-74
2023/06/06 00:40:23;;;;;;;8.73;4.25;;;;;;;;;;5044729;28;20375;-74
2023/06/06 00:42:50;;;;;;;10.80;4.70;;;;;;;;;;5045913;28;20052;-74
2023/06/06 00:45:16;;;;;;;12.55;5.03;;;;;;;;;;5044500;28;20033;-75
2023/06/06 00:47:43;;;;;;;10.98;4.57;;;;;;;;;;5044333;28;20036;-74
2023/06/06 00:50:12;;;;;;;9.00;4.63;;;;;;;;;;5042937;28;20029;-74
2023/06/06 00:52:38;;;;;;;11.30;4.93;;;;;;;;;;5045117;28;20096;-74
2023/06/06 00:55:04;;;;;;;7.18;5.00;;;;;;;;;;5044629;28;20037;-74
2023/06/06 00:57:30;;;;;;;7.30;4.30;;;;;;;;;;5042212;28;20025;-74
2023/06/06 00:59:57;;;;;;;9.00;4.57;;;;;;;;;;5044491;28;20047;-74
2023/06/06 01:02:24;;;;;;;9.60;4.63;;;;;;;;;;5044645;28;20393;-73
2023/06/06 01:04:50;;;;;;;11.93;4.15;;;;;;;;;;5040691;28;20571;-74
2023/06/06 01:07:17;;;;;;;7.90;4.15;;;;;;;;;;5044088;28;20060;-75
2023/06/06 01:09:45;;;;;;;10.80;4.95;;;;;;;;;;5041413;28;20021;-74
2023/06/06 01:12:17;;;;;;;9.52;5.05;;;;;;;;;;5041720;28;20486;-74
2023/06/06 01:14:53;;;;;;;9.65;5.70;;;;;;;;;;5043833;28;20068;-73
2023/06/06 01:17:21;;;;;;;12.55;4.68;;;;;;;;;;5043349;28;20383;-74
2023/06/06 01:19:50;;;;;;;10.80;4.53;;;;;;;;;;5046230;28;20509;-74
2023/06/06 01:22:17;;;;;;;11.07;4.60;;;;;;;;;;5045236;28;20033;-74
2023/06/06 01:24:50;;;;;;;8.18;5.03;;;;;;;;;;5044496;28;20044;-73
2023/06/06 01:27:16;;;;;;;15.25;5.68;;;;;;;;;;5042148;28;20064;-74
2023/06/06 01:29:42;;;;;;;11.25;5.72;;;;;;;;;;5037292;28;20037;-74
2023/06/06 01:32:28;;;;;;;10.27;5.03;;;;;;;;;;5046592;28;20059;-73
2023/06/06 01:35:14;;;;;;;9.88;5.78;;;10.80;99.90;;;;;;5045428;28;20032;-73
2023/06/06 01:37:40;;;;;;;11.93;4.75;;;;;;;;;;5042910;28;20041;-74
2023/06/06 01:40:10;;;;;;;9.43;4.60;;;;;;;;;;5042962;28;20505;-73
2023/06/06 01:42:39;;;;;;;9.60;4.97;;;;;;;;;;5047187;28;20454;-74
2023/06/06 01:45:06;;;;;;;12.27;5.18;;;;;;;;;;5044019;28;20116;-73
2023/06/06 01:47:33;;;;;;;10.80;5.13;;;;;;;;;;5041270;28;20041;-73
2023/06/06 01:49:59;;;;;;;13.48;5.18;;;;;;;;;;5041020;28;20040;-73
2023/06/06 01:52:28;;;;;;;13.35;5.78;;;;;;;;;;5046414;28;20041;-74
2023/06/06 01:54:54;;;;;;;11.90;4.85;;;;;;;;;;5045941;28;20155;-73
2023/06/06 01:57:20;;;;;;;13.75;5.20;;;;;;;;;;5043712;28;20049;-74
2023/06/06 01:59:46;;;;;;;12.57;5.30;;;;;;;;;;5045662;28;20033;-73
2023/06/06 02:02:14;;;;;;;11.27;5.05;;;;;;;;;;5044523;28;20041;-74
2023/06/06 02:04:41;;;;;;;13.07;5.20;;;;;;;;;;5039700;28;20030;-73
2023/06/06 02:07:08;;;;;;;12.25;5.55;;;;;;;;;;5041261;28;20074;-74
2023/06/06 02:09:34;;;;;;;10.25;5.40;;;;;;;;;;5039744;28;20056;-74
2023/06/06 02:12:00;;;;;;;12.25;5.63;;;;;;;;;;5039631;28;20076;-73
2023/06/06 02:14:26;;;;;;;14.02;5.50;;;;;;;;;;5040607;28;20078;-73
2023/06/06 02:16:52;;;;;;;13.50;5.47;;;;;;;;;;5044742;28;20036;-73
2023/06/06 02:19:18;;;;;;;17.38;5.95;;;;;;;;;;5041942;28;20037;-74
2023/06/06 02:21:44;;;;;;;8.60;5.35;;;;;;;;;;5042881;28;20149;-73
2023/06/06 02:24:10;;;;;;;13.18;6.47;;;;;;;;;;5043686;28;20036;-74
2023/06/06 02:26:36;;;;;;;12.95;5.93;;;;;;;;;;5043079;28;20083;-73
2023/06/06 02:29:03;;;;;;;13.55;6.20;;;;;;;;;;5041566;28;20033;-74
2023/06/06 02:31:29;;;;;;;8.27;5.20;;;;;;;;;;5043492;28;20037;-74
2023/06/06 02:33:55;;;;;;;13.15;6.25;;;;;;;;;;5046990;28;20571;-74
2023/06/06 02:36:21;;;;;;;12.07;5.50;;;;;;;;;;5034437;28;20041;-74
2023/06/06 02:38:47;;;;;;;10.77;6.30;;;;;;;;;;5037519;28;20040;-74
2023/06/06 02:41:13;;;;;;;11.60;6.15;;;;;;;;;;5039822;28;20029;-74
2023/06/06 02:43:42;;;;;;;13.18;6.38;;;;;;;;;;5044774;28;20033;-73
2023/06/06 02:46:08;;;;;;;12.32;6.50;;;;;;;;;;5041761;28;20044;-73
2023/06/06 02:48:34;;;;;;;15.25;6.93;;;;;;;;;;5044704;28;20060;-73
2023/06/06 02:51:00;;;;;;;11.85;6.22;;;;;;;;;;5041325;28;20044;-74
2023/06/06 02:53:27;;;;;;;12.98;5.90;;;;;;;;;;5035375;28;20048;-72
2023/06/06 02:55:53;;;;;;;14.75;6.50;;;;;;;;;;5044486;28;20122;-74
2023/06/06 02:58:28;;;;;;;11.38;6.20;;;;;;;;;;5051162;28;20029;-74
2023/06/06 03:00:55;;;;;;;15.60;6.03;;;;;;;;;;5032527;28;20033;-71
2023/06/06 03:03:22;;;;;;;19.55;10.23;;;;;;;;;;5033376;28;20048;-75
2023/06/06 03:05:51;;;;;;;16.98;9.80;;;;;;;;;;5031564;28;20068;-76
2023/06/06 03:08:20;;;;;;;16.08;8.90;;;;;;;;;;5039089;28;20041;-75
2023/06/06 03:10:49;;;;;;;14.95;7.85;;;;;;;;;;5040647;28;20033;-75
2023/06/06 03:13:16;;;;;;;17.83;7.03;;;;;;;;;;5050155;28;20033;-74
2023/06/06 03:15:44;;;;;;;14.30;6.45;;;;;;;;;;5048360;28;20033;-73
2023/06/06 03:18:11;;;;;;;13.60;7.88;;;;;;;;;;5053364;28;20030;-74
2023/06/06 03:20:41;;;;;;;12.73;6.20;;;;;;;;;;5049144;28;20382;-74
2023/06/06 03:23:08;;;;;;;16.42;5.90;;;;;;;;;;5047774;28;20091;-74
2023/06/06 03:25:34;;;;;;;12.38;6.65;;;;;;;;;;5049408;28;20025;-75
2023/06/06 03:28:01;;;;;;;15.57;7.50;;;;;;;;;;5051105;28;20028;-76
2023/06/06 03:30:27;;;;;;;10.15;6.40;;;;;;;;;;5050152;28;20044;-76
2023/06/06 03:32:53;;;;;;;22.45;14.25;;;;;;;;;;5045403;28;20029;-73
2023/06/06 03:35:19;;;;;;;23.50;11.85;;;;;;;;;;5050438;28;20076;-75
2023/06/06 03:37:45;;;;;;;21.92;11.82;;;;;;;;;;5049787;28;20061;-74
2023/06/06 03:40:14;;;;;;;12.93;6.57;;;;;;;;;;5048023;28;20508;-75
2023/06/06 03:42:40;;;;;;;12.00;6.45;;;;;;;;;;5045275;28;20029;-75
2023/06/06 03:45:06;;;;;;;10.25;6.93;;;;;;;;;;5050571;28;20055;-75
2023/06/06 03:47:32;;;;;;;14.07;7.28;;;;;;;;;;5049957;28;20071;-75
2023/06/06 03:49:58;;;;;;;14.52;6.30;;;;;;;;;;5049086;28;20083;-75
2023/06/06 03:52:24;;;;;;;10.32;6.28;;;;;;;;;;5042584;28;20037;-75
2023/06/06 03:54:51;;;;;;;15.95;7.10;;;;;;;;;;5052548;28;20491;-74
2023/06/06 03:57:17;;;;;;;16.52;7.03;;;;;;;;;;5053471;28;20449;-75
2023/06/06 03:59:44;;;;;;;13.18;6.55;;;;;;;;;;5052618;28;20025;-74
2023/06/06 04:02:10;;;;;;;16.17;6.97;;;;;;;;;;5051638;28;20043;-78
2023/06/06 04:04:36;;;;;;;18.50;11.75;;;;;;;;;;5051492;28;20037;-78
2023/06/06 04:07:03;;;;;;;25.15;13.30;;;;;;;;;;5053363;28;20029;-77
2023/06/06 04:09:29;;;;;;;12.80;7.45;;;;;;;;;;5033765;28;20487;-75
2023/06/06 04:11:55;;;;;;;11.20;6.55;;;;;;;;;;5047022;28;20040;-75
2023/06/06 04:14:21;;;;;;;14.57;7.22;;;;;;;;;;5039378;28;20037;-75
2023/06/06 04:16:48;;;;;;;15.80;7.57;;;;;;;;;;5043772;28;20126;-76
2023/06/06 04:19:14;;;;;;;21.23;7.65;;;;;;;;;;5043945;28;20112;-75
2023/06/06 04:21:40;;;;;;;18.48;8.55;;;;;;;;;;5036528;28;20056;-74
2023/06/06 04:24:06;;;;;;;12.15;7.15;;;;;;;;;;5044811;28;20045;-75
2023/06/06 04:26:33;;;;;;;13.65;7.60;;;;;;;;;;5036379;28;20084;-75
2023/06/06 04:28:59;;;;;;;13.18;6.40;;;;;;;;;;5038778;28;20029;-75
2023/06/06 04:31:28;;;;;;;15.52;7.70;;;;;;;;;;5043112;28;20166;-75
2023/06/06 04:33:54;;;;;;;14.93;7.53;;;;;;;;;;5045766;28;20041;-76
2023/06/06 04:36:21;;;;;;;13.10;6.80;;;;;;;;;;5044805;28;20041;-76
2023/06/06 04:38:49;;;;;;;14.18;7.13;;;;;;;;;;5044598;28;20123;-76
2023/06/06 04:41:20;;;;;;;11.63;6.15;;;;;;;;;;5044255;28;20051;-76
2023/06/06 04:43:49;;;;;;;13.60;6.85;;;;;;;;;;5044065;28;20029;-76
2023/06/06 04:46:21;;;;;;;12.80;6.88;;;;;;;;;;5045234;28;20041;-76
2023/06/06 04:48:54;;;;;;;11.70;5.95;;;;;;;;;;5042194;28;20044;-76
2023/06/06 04:51:22;;;;;;;20.15;7.15;;;;;;;;;;5043234;28;20059;-76
2023/06/06 04:53:50;;;;;;;12.27;6.53;;;;;;;;;;5042845;28;20083;-75
2023/06/06 04:56:17;;;;;;;13.90;7.43;;;;;;;;;;5041497;28;20136;-76
2023/06/06 04:58:44;;;;;;;13.18;6.85;;;;;;;;;;5047094;28;20132;-76
2023/06/06 05:01:13;;;;;;;16.35;6.30;;;;;;;;;;5043715;28;20025;-77
2023/06/06 05:03:39;;;;;;;12.38;7.65;;;;;;;;;;5043256;28;20430;-76
2023/06/06 05:06:06;;;;;;;16.58;7.05;;;;;;;;;;5043549;28;20356;-77
2023/06/06 05:08:35;;;;;;;15.20;6.32;;;;;;;;;;5045509;28;20021;-76
2023/06/06 05:11:01;;;;;;;10.27;6.28;;;;;;;;;;5044658;28;20399;-76
2023/06/06 05:13:27;;;;;;;19.13;7.07;;;;;;;;;;5039189;28;20041;-76
2023/06/06 05:15:53;;;;;;;12.68;6.68;;;;;;;;;;5044692;28;20102;-76
2023/06/06 05:18:20;;;;;;;13.77;6.18;;;;;;;;;;5040916;28;20382;-76
2023/06/06 05:20:46;;;;;;;9.40;5.60;;;;;;;;;;5045404;28;20039;-75
2023/06/06 05:23:12;;;;;;;17.13;6.57;;;;;;;;;;5051418;28;20037;-75
2023/06/06 05:25:38;;;;;;;12.98;5.75;;;;;;;;;;5044150;28;20056;-75
2023/06/06 05:28:04;;;;;;;15.82;6.07;;;;;;;;;;5044074;28;20032;-76
2023/06/06 05:30:30;;;;;;;18.58;6.75;;;;;;;;;;5044837;28;20033;-76
2023/06/06 05:32:56;;;;;;;21.38;6.75;;;;;;;;;;5043288;28;21740;-75
2023/06/06 05:35:22;;;;;;;19.83;6.53;;;;;;;;;;5040889;28;20053;-76
2023/06/06 05:37:49;;;;;;;11.82;6.03;;;;;;;;;;5041990;28;20074;-76
2023/06/06 05:40:15;;;;;;;13.40;5.85;;;;;;;;;;5045699;28;20033;-75
2023/06/06 05:42:41;;;;;;;14.20;6.35;;;;;;;;;;5044577;28;20257;-76
2023/06/06 05:45:07;;;;;;;18.17;6.43;;;;;;;;;;5043623;28;20049;-75
2023/06/06 05:47:33;;;;;;;13.32;5.60;;;;;;;;;;5043978;28;20041;-75
2023/06/06 05:49:59;;;;;;;9.32;5.18;;;;;;;;;;5042581;28;20033;-76
2023/06/06 05:52:26;;;;;;;19.25;6.15;;;;;;;;;;5044765;28;20037;-76
2023/06/06 05:54:58;;;;;;;11.60;5.10;;;;;;;;;;5044677;28;20120;-75
2023/06/06 05:57:24;;;;;;;16.25;5.53;;;;;;;;;;5039555;28;20037;-75
2023/06/06 05:59:50;;;;;;;11.63;5.45;;;;;;;;;;5044924;28;20028;-75
2023/06/06 06:02:17;;;;;;;16.63;5.47;;;;;;;;;;5044612;28;20040;-76
2023/06/06 06:04:45;;;;;;;14.82;5.18;;;;;;;;;;5043407;28;20044;-76
2023/06/06 06:07:12;;;;;;;14.38;5.03;;;;;;;;;;5042916;28;20098;-76
2023/06/06 06:09:38;;;;;;;9.98;4.65;;;;;;;;;;5041767;28;20367;-75
2023/06/06 06:12:05;;;;;;;17.60;5.22;;;;;;;;;;5044468;28;20060;-76
2023/06/06 06:14:31;;;;;;;12.80;4.53;;;;;;;;;;5039337;28;20123;-76
2023/06/06 06:16:57;;;;;;;11.32;3.65;;;;;;;;;;5041794;28;20029;-75
2023/06/06 06:19:23;;;;;;;8.32;3.75;;;;;;;;;;5041791;28;20066;-76
2023/06/06 06:21:49;;;;;;;13.25;4.55;;;;;;;;;;5038597;28;20524;-76
2023/06/06 06:24:15;;;;;;;10.77;4.40;;;;;;;;;;5043375;28;20025;-76
2023/06/06 06:26:41;;;;;;;7.78;3.90;;;;;;;;;;5040335;28;21272;-75
2023/06/06 06:29:07;;;;;;;9.40;3.60;;;;;;;;;;5042968;28;20495;-76
2023/06/06 06:31:33;;;;;;;14.50;4.20;;;;;;;;;;5045742;28;20118;-75
2023/06/06 06:33:59;;;;;;;10.95;4.65;;;;;;;;;;5041010;28;20037;-76
2023/06/06 06:36:25;;;;;;;10.55;3.70;;;;;;;;;;5039683;28;20062;-75
2023/06/06 06:38:51;;;;;;;10.30;3.80;;;;;;;;;;5043714;28;20032;-75
2023/06/06 06:41:17;;;;;;;9.45;3.55;;;;;;;;;;5037256;28;20382;-78
2023/06/06 06:43:43;;;;;;;6.38;3.47;;;;;;;;;;5037480;28;20037;-75
2023/06/06 06:46:09;;;;;;;5.43;3.40;;;;;;;;;;5030813;28;20687;-76
2023/06/06 06:48:35;;;;;;;10.48;3.63;;;;;;;;;;5032058;28;20087;-75
2023/06/06 06:51:01;;;;;;;12.65;3.55;;;;;;;;;;5031262;28;20123;-74
2023/06/06 06:53:30;;;;;;;7.63;3.83;;;;;;;;;;5032002;28;20500;-75
2023/06/06 06:55:56;;;;;;;18.83;7.60;;;;;;;;;;5045469;28;20159;-76
2023/06/06 06:58:25;;;;;;;14.55;7.00;;;;;;;;;;5050309;28;20028;-76
2023/06/06 07:00:54;;;;;;;11.30;3.22;;;;;;;;;;5050494;28;20082;-77
2023/06/06 07:03:20;;;;;;;7.65;3.28;;;;;;;;;;5064894;28;20344;-76
2023/06/06 07:05:46;;;;;;;7.00;2.70;;;;;;;;;;5061043;28;20076;-76
2023/06/06 07:08:12;;;;;;;10.93;3.38;;;;;;;;;;5048352;28;20486;-76
2023/06/06 07:10:38;;;;;;;7.82;2.90;;;;;;;;;;5039561;28;20028;-75
2023/06/06 07:13:04;;;;;;;8.80;3.10;;;;;;;;;;5048844;28;20493;-74
2023/06/06 07:15:30;;;;;;;16.42;4.78;;;;;;;;;;5045384;28;20067;-75
2023/06/06 07:17:56;;;;;;;14.07;6.20;;;;;;;;;;5050624;28;20134;-75
2023/06/06 07:20:23;;;;;;;6.82;2.65;;;;;;;;;;5049469;28;20037;-75
2023/06/06 07:22:53;;;;;;;6.32;2.50;;;;;;;;;;5044792;28;20060;-74
2023/06/06 07:25:19;;;;;;;8.68;2.80;;;;;;;;;;5035140;28;20482;-75
2023/06/06 07:27:45;;;;;;;6.45;2.40;;;;;;;;;;5044852;28;20052;-78
2023/06/06 07:30:14;;;;;;;6.88;2.60;;;;;;;;;;5042191;28;20049;-77
2023/06/06 07:32:41;;;;;;;8.25;2.53;;;;;;;;;;5043842;28;20466;-79
2023/06/06 07:35:08;;;;;;;11.27;3.05;;;;;;;;;;5044711;28;20482;-78
2023/06/06 07:37:35;;;;;;;6.63;2.75;;;;;;;;;;5042510;28;20497;-79
2023/06/06 07:40:03;;;;;;;8.82;3.13;;;;;;;;;;5045003;28;20021;-81
2023/06/06 07:42:29;;;;;;;10.00;3.08;;;;;;;;;;5042587;28;20112;-76
2023/06/06 07:44:55;;;;;;;11.15;2.75;;;;;;;;;;5045737;28;20112;-79
2023/06/06 07:47:23;;;;;;;8.20;3.05;;;;;;;;;;5039686;28;20446;-78
2023/06/06 07:49:50;;;;;;;6.03;2.80;;;;;;;;;;5044407;28;20043;-77
2023/06/06 07:52:16;;;;;;;6.90;2.45;;;;;;;;;;5043352;28;20033;-76
2023/06/06 07:54:43;;;;;;;6.07;2.78;;;;;;;;;;5043490;28;20036;-77
2023/06/06 07:57:09;;;;;;;8.57;3.05;;;;;;;;;;5042883;28;20049;-79
2023/06/06 07:59:36;;;;;;;6.45;2.78;;;;;;;;;;5050165;28;20025;-78
2023/06/06 08:02:02;;;;;;;7.97;2.50;;;;;;;;;;5053452;28;20475;-77
2023/06/06 08:04:28;;;;;;;7.93;2.50;;;;;;;;;;5043889;28;20110;-76
2023/06/06 08:06:54;;;;;;;8.55;3.28;;;;;;;;;;5042053;28;20116;-79
2023/06/06 08:09:20;;;;;;;5.07;2.70;;;;;;;;;;5044197;28;20040;-79
2023/06/06 08:11:46;;;;;;;5.80;3.05;;;;;;;;;;5045553;28;20379;-78
2023/06/06 08:14:12;;;;;;;7.03;2.60;;;;;;;;;;5039088;28;20047;-76
2023/06/06 08:16:38;;;;;;;37.75;26.38;;;;;;;;;;5050740;28;20029;-78
2023/06/06 08:19:04;;;;;;;13.32;5.00;;;;;;;;;;5053623;28;20078;-78
2023/06/06 08:21:30;;;;;;;11.75;3.63;;;;;;;;;;5053702;28;20041;-78
2023/06/06 08:23:57;;;;;;;7.97;3.10;;;;;;;;;;5048419;28;20049;-76
2023/06/06 08:26:25;;;;;;;7.35;2.92;;;;;;;;;;5039698;28;20091;-76
2023/06/06 08:28:54;;;;;;;5.97;2.83;;;;;;;;;;5040155;28;20040;-79
2023/06/06 08:31:23;;;;;;;7.00;2.78;;;;;;;;;;5041770;28;20417;-79
2023/06/06 08:33:49;;;;;;;7.15;2.45;;;;;;;;;;5041834;28;20087;-80
2023/06/06 08:36:15;;;;;;;8.48;4.80;;;;;;;;;;5039619;28;20040;-79
2023/06/06 08:38:41;;;;;;;15.07;8.65;;;;;;;;;;5040229;28;20037;-78
2023/06/06 08:41:07;;;;;;;5.35;3.05;;;;;;;;;;5042227;28;20539;-78
2023/06/06 08:43:36;;;;;;;6.28;2.78;;;;;;;;;;5040674;28;20040;-76
2023/06/06 08:46:02;;;;;;;7.38;2.42;;;;;;;;;;5039938;28;20037;-80
2023/06/06 08:48:29;;;;;;;5.63;2.53;;;;;;;;;;5041243;28;20033;-79
2023/06/06 08:50:56;;;;;;;10.88;2.70;;;;;;;;;;5043221;28;20462;-80
2023/06/06 08:53:22;;;;;;;6.10;2.70;;;;;;;;;;5045035;28;20037;-78
2023/06/06 08:55:48;;;;;;;7.38;3.60;;;;;;;;;;5043079;28;20068;-76
2023/06/06 08:58:14;;;;;;;9.10;3.00;;;;;;;;;;5045684;28;20064;-78
2023/06/06 09:00:41;;;;;;;9.00;3.53;;;;;;;;;;5040731;28;20033;-79
2023/06/06 09:03:07;;;;;;;9.00;4.75;;;;;;;;;;5041149;28;20033;-81
2023/06/06 09:05:38;;;;;;;13.00;6.93;;;;;;;;;;5040766;28;20049;-83
2023/06/06 09:08:04;;;;;;;9.02;3.20;;;;;;;;;;5037567;28;20112;-79
2023/06/06 09:10:30;;;;;;;8.32;3.20;;;;;;;;;;5043938;28;20519;-76
2023/06/06 09:12:56;;;;;;;7.78;3.35;;;;;;;;;;5037288;28;20053;-75
2023/06/06 09:15:25;;;;;;;10.82;3.75;;;;;;;;;;5041286;28;20083;-77
2023/06/06 09:17:53;;;;;;;4.88;2.90;;;;;;;;;;5039722;28;20088;-77
2023/06/06 09:20:19;;;;;;;8.50;3.45;;;;;;;;;;5041334;28;20080;-78
2023/06/06 09:22:46;;;;;;;7.97;3.00;;;;;;;;;;5036301;28;20032;-76
2023/06/06 09:25:21;;;;;;;8.85;4.30;;;;;;;;;;5047584;28;20045;-83
2023/06/06 09:27:52;;;;;;;5.55;4.05;;;;;;;;;;5038895;28;22897;-73
2023/06/06 09:30:20;;;;;;;6.60;3.40;;;;;;;;;;5037939;28;20033;-77
2023/06/06 09:32:46;;;;;;;6.70;3.72;;;;;;;;;;5045195;28;20482;-77
2023/06/06 09:35:15;;;;;;;11.23;4.75;;;;;;;;;;5051730;28;20045;-79
2023/06/06 09:37:41;;;;;;;9.45;3.53;;;;;;;;;;5052111;28;20029;-76
2023/06/06 09:40:11;;;;;;;7.10;3.45;;;;;;;;;;5051967;28;20025;-77
2023/06/06 09:42:38;;;;;;;7.18;3.60;;;;;;;;;;5048008;28;20032;-76
2023/06/06 09:45:16;;;;;;;7.43;3.60;;;;;;;;;;5044930;28;20025;-77
2023/06/06 09:47:43;;;;;;;6.25;3.20;;;;;;;;;;5049865;28;20558;-76
2023/06/06 09:50:10;;;;;;;7.30;3.13;;;;;;;;;;5051582;28;20064;-76
2023/06/06 09:52:36;;;;;;;7.15;4.05;;;;;;;;;;5049195;28;20036;-77
2023/06/06 09:55:05;;;;;;;6.60;3.45;;;;;;;;;;5040082;28;20051;-81
2023/06/06 09:57:35;;;;;;;8.25;4.50;;;;;;;;;;5042230;28;20056;-81
2023/06/06 10:00:10;;;;;;;11.38;6.15;;;;;;;;;;5042793;28;20021;-81
2023/06/06 10:02:40;;;;;;;8.57;3.42;;;;;;;;;;5042496;28;20025;-77
2023/06/06 10:05:07;;;;;;;8.55;3.38;;;;;;;;;;5036569;28;20031;-84
2023/06/06 10:07:33;;;;;;;8.68;3.22;;;;;;;;;;5039226;28;20045;-78
2023/06/06 10:09:59;;;;;;;8.23;3.67;;;;;;;;;;5042566;28;20036;-80
2023/06/06 10:12:31;;;;;;;7.32;3.13;;;;;;;;;;5039270;28;20119;-80
2023/06/06 10:14:58;;;;;;;7.30;3.17;;;;;;;;;;5039844;28;20065;-79
2023/06/06 10:17:24;;;;;;;10.18;4.20;;;;;;;;;;5041923;28;20169;-76
2023/06/06 10:19:52;;;;;;;9.40;3.20;;;;;;;;;;5042418;28;20037;-82
2023/06/06 10:22:18;;;;;;;8.10;3.45;;;;;;;;;;5044611;28;20735;-82
2023/06/06 10:24:44;;;;;;;7.00;3.40;;;;;;;;;;5045522;28;20044;-79
2023/06/06 10:27:10;;;;;;;8.70;3.83;;;;;;;;;;5037206;28;20038;-79
2023/06/06 10:29:48;;;;;;;7.00;3.38;;;;;;;;;;5039191;28;20044;-77
2023/06/06 10:32:17;;;;;;;8.93;2.92;;;;;;;;;;5040161;28;20033;-78
2023/06/06 10:34:45;;;;;;;9.20;3.17;;;;;;;;;;5040479;28;20040;-79
2023/06/06 10:37:15;;;;;;;7.68;3.30;;;;;;;;;;5044202;28;20029;-75
2023/06/06 10:39:45;;;;;;;10.68;3.42;;;;;;;;;;5040366;28;20122;-76
2023/06/06 10:42:11;;;;;;;7.80;4.10;;;;;;;;;;5039221;28;20577;-79
2023/06/06 10:44:46;;;;;;;8.85;4.28;;;;;;;;;;5045426;28;20559;-76
2023/06/06 10:47:24;;;;;;;9.63;4.25;;;;;;;;;;5040353;28;20036;-76
2023/06/06 10:50:11;;;;;;;13.40;7.13;;;;;;;;;;5042970;28;20033;-78
2023/06/06 10:53:06;;;;;;;9.93;4.25;;;;;;;;;;5038124;28;20551;-81
2023/06/06 10:55:32;;;;;;;9.63;4.30;;;;;;;;;;5034880;28;20099;-77
2023/06/06 10:58:14;;;;;;;11.43;5.03;;;;;;;;;;5033755;28;20125;-75
2023/06/06 11:00:47;;;;;;;13.00;4.60;;;;;;;;;;5039817;28;20037;-81
2023/06/06 11:03:14;;;;;;;14.68;4.30;;;;;;;;;;5036314;28;20031;-77
2023/06/06 11:06:02;;;;;;;8.57;4.68;;;23.10;99.90;;;;;;5042317;28;20039;-76
2023/06/06 11:08:34;;;;;;;10.40;3.90;;;;;;;;;;5053725;28;20037;-78
2023/06/06 11:11:19;;;;;;;14.38;4.63;;;;;;;;;;5042474;28;20105;-77
2023/06/06 11:14:00;;;;;;;15.40;5.45;;;;;;;;;;5042825;28;20123;-79
2023/06/06 11:16:32;;;;;;;11.48;5.40;;;;;;;;;;5037997;28;20486;-78
2023/06/06 11:19:01;;;;;;;15.07;5.43;;;;;;;;;;5045648;28;20028;-77
2023/06/06 11:21:27;;;;;;;10.75;4.82;;;;;;;;;;5048772;28;20028;-76
2023/06/06 11:23:54;;;;;;;10.38;4.97;;;;;;;;;;5048890;28;20040;-76
2023/06/06 11:26:21;;;;;;;11.63;4.43;;;;;;;;;;5052913;28;20028;-77
2023/06/06 11:28:47;;;;;;;12.15;5.15;;;;;;;;;;5049148;28;20044;-77
2023/06/06 11:31:19;;;;;;;11.68;4.65;;;;;;;;;;5041709;28;20033;-78
2023/06/06 11:33:45;;;;;;;11.68;5.07;;;;;;;;;;5047103;28;20025;-77
2023/06/06 11:36:12;;;;;;;9.95;4.25;;;;;;;;;;5048887;28;20092;-79
2023/06/06 11:38:41;;;;;;;12.63;4.60;;;;;;;;;;5049795;28;20449;-78
2023/06/06 11:41:07;;;;;;;9.52;4.72;;;;;;;;;;5050381;28;20025;-78
2023/06/06 11:43:33;;;;;;;10.38;4.88;;;;;;;;;;5049335;28;20470;-77
2023/06/06 11:46:03;;;;;;;6.80;3.85;;;;;;;;;;5041443;28;20025;-78
2023/06/06 11:48:29;;;;;;;15.73;9.50;;;;;;;;;;5039113;28;20028;-75
2023/06/06 11:50:55;;;;;;;12.57;6.28;;;;;;;;;;5036946;28;20033;-78
2023/06/06 11:53:29;;;;;;;11.60;4.32;;;;;;;;;;5037190;28;20032;-78
2023/06/06 11:55:55;;;;;;;10.10;4.07;;;;;;;;;;5036108;28;20561;-76
2023/06/06 11:58:21;;;;;;;8.43;4.03;;;;;;;;;;5036929;28;20041;-77
2023/06/06 12:00:48;;;;;;;9.82;4.13;;;;;;;;;;5038207;28;20108;-80
2023/06/06 12:03:15;;;;;;;11.50;3.85;;;;;;;;;;5036319;28;20124;-81
2023/06/06 12:05:41;;;;;;;9.48;3.95;;;;;;;;;;5038493;28;20041;-80
2023/06/06 12:08:08;;;;;;;8.60;3.67;;;;;;;;;;5037216;28;20797;-82
2023/06/06 12:10:34;;;;;;;10.10;3.90;;;;;;;;;;5047698;28;20700;-81
2023/06/06 12:13:00;;;;;;;14.63;4.60;;;;;;;;;;5046193;28;20108;-80
2023/06/06 12:15:48;;;;;;;9.82;3.85;;;;;;;;;;5051283;28;20037;-80
2023/06/06 12:18:14;;;;;;;10.00;5.57;;;;;;;;;;5046564;28;20115;-81
2023/06/06 12:20:40;;;;;;;13.43;5.30;;;;;;;;;;5050121;28;20033;-80
2023/06/06 12:23:06;;;;;;;14.43;4.97;;;;;;;;;;5052101;28;20025;-79
2023/06/06 12:25:32;;;;;;;8.82;4.72;;;;;;;;;;5050999;28;20620;-77
2023/06/06 12:28:08;;;;;;;7.78;4.40;;;;;;;;;;5048194;28;20071;-80
2023/06/06 12:30:34;;;;;;;11.55;4.72;;;;;;;;;;5049424;28;20327;-79
2023/06/06 12:33:02;;;;;;;13.73;4.90;;;;;;;;;;5050032;28;20095;-77
2023/06/06 12:35:28;;;;;;;12.60;5.00;;;;;;;;;;5048868;28;20128;-79
2023/06/06 12:37:55;;;;;;;13.27;4.53;;;;;;;;;;5048129;28;20474;-79
2023/06/06 12:40:23;;;;;;;10.05;5.18;;;;;;;;;;5048825;28;20116;-79
2023/06/06 12:42:59;;;;;;;9.55;4.55;;;;;;;;;;5053151;28;20020;-78
2023/06/06 12:45:25;;;;;;;10.20;4.80;;;;;;;;;;5049070;28;20029;-78
2023/06/06 12:47:52;;;;;;;12.13;4.72;;;;;;;;;;5048848;28;20025;-78
2023/06/06 12:50:19;;;;;;;12.80;4.47;;;;;;;;;;5042743;28;20044;-79
2023/06/06 12:52:45;;;;;;;10.32;4.68;;;;;;;;;;5050796;28;20032;-79
2023/06/06 12:55:11;;;;;;;11.88;4.47;;;;;;;;;;5054858;28;20068;-77
2023/06/06 12:57:37;;;;;;;9.68;3.67;;;;;;;;;;5051914;28;20060;-78
2023/06/06 13:00:07;;;;;;;16.48;5.55;;;;;;;;;;5051917;28;20029;-79
2023/06/06 13:02:34;;;;;;;9.80;3.47;;;;;;;;;;5053231;28;20091;-79
2023/06/06 13:05:00;;;;;;;8.88;4.32;;;;;;;;;;5047922;28;20470;-79
2023/06/06 13:07:26;;;;;;;9.82;3.70;;;;;;;;;;5049595;28;20058;-79
2023/06/06 13:09:55;;;;;;;16.25;5.10;;;;;;;;;;5050238;28;20037;-79
2023/06/06 13:12:22;;;;;;;9.43;3.65;;;;;;;;;;5046991;28;20027;-79
2023/06/06 13:14:48;;;;;;;11.30;4.05;;;;;;;;;;5048495;28;20033;-77
2023/06/06 13:17:16;;;;;;;12.82;4.22;;;;;;;;;;5052478;28;20033;-80
2023/06/06 13:19:43;;;;;;;9.32;4.22;;;;;;;;;;5050898;28;20021;-79
2023/06/06 13:22:09;;;;;;;11.85;3.53;;;;;;;;;;5051051;28;20442;-79
2023/06/06 13:24:35;;;;;;;11.98;4.05;;;;;;;;;;5064707;28;20203;-77
2023/06/06 13:27:02;;;;;;;8.15;3.53;;;;;;;;;;5061664;28;20029;-79
2023/06/06 13:29:28;;;;;;;11.43;3.63;;;;;;;;;;5050553;28;20467;-78
2023/06/06 13:31:54;;;;;;;8.70;3.20;;;;;;;;;;5036453;28;20055;-78
2023/06/06 13:34:20;;;;;;;12.68;3.78;;;;;;;;;;5047377;28;20041;-78
2023/06/06 13:36:46;;;;;;;9.95;4.13;;;;;;;;;;5051017;28;20032;-78
2023/06/06 13:39:12;;;;;;;11.93;4.28;;;;;;;;;;5051901;28;20105;-79
2023/06/06 13:41:42;;;;;;;9.35;3.20;;;;;;;;;;5052011;28;20036;-79
2023/06/06 13:44:08;;;;;;;14.98;4.22;;;;;;;;;;5050087;28;21975;-79
2023/06/06 13:46:34;;;;;;;8.35;3.60;;;;;;;;;;5049944;28;20409;-78
2023/06/06 13:49:01;;;;;;;12.00;4.10;;;;;;;;;;5052044;28;20051;-77
2023/06/06 13:51:27;;;;;;;13.23;3.92;;;;;;;;;;5051611;28;20040;-78
2023/06/06 13:53:53;;;;;;;8.63;3.38;;;;;;;;;;5036035;28;20036;-71
2023/06/06 13:56:22;;;;;;;7.05;3.55;;;;;;;;;;5040442;28;20048;-71
2023/06/06 13:58:53;;;;;;;12.57;3.88;;;;;;;;;;5040500;28;20383;-80
2023/06/06 14:01:20;;;;;;;8.82;3.97;;;;;;;;;;5048125;28;20029;-81
2023/06/06 14:03:46;;;;;;;9.10;3.50;;;;;;;;;;5051853;28;20590;-79
2023/06/06 14:06:12;;;;;;;10.73;3.90;;;;;;;;;;5047897;28;20036;-78
2023/06/06 14:08:39;;;;;;;12.80;3.45;;;;;;;;;;5050527;28;20068;-81
2023/06/06 14:11:10;;;;;;;15.40;4.25;;;;;;;;;;5051096;28;20403;-81
2023/06/06 14:13:36;;;;;;;11.07;4.15;;;;;;;;;;5049716;28;20065;-78
2023/06/06 14:16:02;;;;;;;9.40;4.38;;;;;;;;;;5049166;28;20091;-80
2023/06/06 14:18:28;;;;;;;14.27;3.78;;;;;;;;;;5050207;28;20559;-80
2023/06/06 14:21:11;;;;;;;12.77;4.22;;;;;;;;;;5048460;28;20064;-78
2023/06/06 14:23:39;;;;;;;;;;;21.50;99.90;;;;;;5051905;28;20036;-79
2023/06/06 14:26:06;;;;;;;12.88;3.08;;;;;;;;;;5032700;28;19912;-77
2023/06/06 14:28:32;;;;;;;11.23;3.35;;;;;;;;;;5049617;28;20450;-79
2023/06/06 14:30:58;;;;;;;12.30;3.65;;;;;;;;;;5050884;28;20037;-79
2023/06/06 14:33:24;;;;;;;11.98;3.83;;;;;;;;;;5048236;28;20029;-79
2023/06/06 14:35:51;;;;;;;9.50;3.25;;;;;;;;;;5046384;28;20481;-79